This is the latest recevied weather packets stored in our database for station/object EA6AMI-5. If no packets are shown the sender has not sent any weather packets the latest 10 day(s).
| Time | Temp. | Humidity | Pressure | Rain* | Wind** | Luminosity | Snow |
|---|---|---|---|---|---|---|---|
| 1777553104 | 23.89° C | 59% | 1015.7 hPa | 0 mm | - | 798 W/m² | - |
| 1777552564 | 25° C | 53% | 1015.7 hPa | 0 mm | - | 285 W/m² | - |
| 1777552023 | 25.56° C | 53% | 1015.6 hPa | 0 mm | - | 256 W/m² | - |
| 1777551484 | 25° C | 53% | 1015.4 hPa | 0 mm | - | 218 W/m² | - |
| 1777550943 | 24.44° C | 56% | 1015.8 hPa | 0 mm | - | 403 W/m² | - |
| 1777550403 | 24.44° C | 56% | 1015.6 hPa | 0 mm | - | 907 W/m² | - |
| 1777550044 | 24.44° C | 55% | 1015.9 hPa | 0 mm | - | 223 W/m² | - |
| 1777549504 | 25° C | 54% | 1016 hPa | 0 mm | - | 880 W/m² | - |
| 1777548963 | 23.33° C | 58% | 1015.7 hPa | 0 mm | - | 885 W/m² | - |
| 1777548423 | 23.89° C | 57% | 1016.1 hPa | 0 mm | - | 876 W/m² | - |
| 1777547883 | 23.33° C | 59% | 1016 hPa | 0 mm | - | 271 W/m² | - |
| 1777547343 | 22.78° C | 61% | 1016.2 hPa | 0 mm | - | 900 W/m² | - |
| 1777546804 | 22.78° C | 62% | 1016.3 hPa | 0 mm | - | 271 W/m² | - |
| 1777546444 | 22.22° C | 63% | 1016.3 hPa | 0 mm | - | 464 W/m² | - |
| 1777545904 | 22.22° C | 64% | 1016.2 hPa | 0 mm | - | 333 W/m² | - |
| 1777545364 | 22.22° C | 62% | 1016.3 hPa | 0 mm | - | 847 W/m² | - |
| 1777544824 | 21.67° C | 64% | 1016.6 hPa | 0 mm | - | 785 W/m² | - |
| 1777544284 | 21.67° C | 64% | 1016.6 hPa | 0 mm | - | 903 W/m² | - |
| 1777543744 | 21.67° C | 65% | 1016.5 hPa | 0 mm | - | 876 W/m² | - |
| 1777543203 | 21.67° C | 65% | 1016.5 hPa | 0 mm | - | 614 W/m² | - |
| 1777542843 | 21.67° C | 65% | 1016.5 hPa | 0 mm | - | 733 W/m² | - |
| 1777542304 | 20° C | 68% | 1016.5 hPa | 0 mm | - | 582 W/m² | - |
| 1777541764 | 20.56° C | 67% | 1016.5 hPa | 0 mm | - | 671 W/m² | - |
| 1777541223 | 21.11° C | 66% | 1016.3 hPa | 0 mm | - | 619 W/m² | - |
| 1777540683 | 21.67° C | 66% | 1016.5 hPa | 0 mm | - | 599 W/m² | - |
* Rain latest hour (hover to see other rain measurements)
** Current wind speed in m/s (hover to see current wind gust speed)